Flughafen Dortmund

Aus VATSIM Germany
Dies ist die bestätigte sowie die neueste Version dieser Seite.
Wechseln zu:Navigation, Suche
UnderCon icon.svg.pngDieser Artikel ist noch im Aufbau. Der Artikel kann daher unvollständig sein oder Fehler enthalten!


Dortmund Airport
ICAO / IATA EDLW / DTM
Koordinaten N51°31′6″  E007°36′44″
Höhe 130 m / 425 ft
Wetter EDLW 190620Z 19013KT 6000 -DZ BKN016 BKN021 13/11 Q1018
Pisten
Platzfrequenzen
Nur für Flugsimulationszwecke!



Informationen für Piloten und Lotsen
Pilotenbriefing

Standard Operating Procedures (SOP)

Letters of Agreement (LoAs)

Airport Charts


Vorlage:Navigationsleiste Flughäfen EDLL